Time;durP1;ratioP1;P1;durP2;ratioP2;P2;SDS_P1;SDS_P2;PMS_P1;PMS_P2;Temp;Humidity;BMP_temperature;BMP_pressure;BME280_temperature;BME280_humidity;BME280_pressure;Samples;Min_cycle;Max_cycle;Signal;HPM_P1;HPM_P2
2022/06/06 00:00:49;;;;;;;2.83;0.77;;;15.50;99.90;16.70;96731.00;;;;5035826;28;20244;-85
2022/06/06 00:03:38;;;;;;;2.30;0.57;;;15.50;99.90;16.40;96742.00;;;;5035145;28;20693;-86
2022/06/06 00:06:27;;;;;;;1.77;0.50;;;15.40;99.90;16.50;96744.00;;;;5038351;28;20202;-85
2022/06/06 00:09:17;;;;;;;0.70;0.50;;;15.40;99.90;16.20;96757.00;;;;5027410;28;20202;-85
2022/06/06 00:12:07;;;;;;;1.97;0.63;;;15.30;99.90;16.00;96749.00;;;;5030509;28;20201;-85
2022/06/06 00:14:56;;;;;;;3.80;0.90;;;15.30;99.90;15.90;96762.00;;;;5027372;28;20225;-85
2022/06/06 00:17:47;;;;;;;0.60;0.50;;;;;15.80;96768.00;;;;5039140;28;20221;-84
2022/06/06 00:20:36;;;;;;;0.80;0.80;;;15.10;99.90;16.00;96769.00;;;;5033181;28;20221;-85
2022/06/06 00:23:25;;;;;;;1.40;0.67;;;15.10;99.90;16.00;96780.00;;;;5034183;28;20201;-86
2022/06/06 00:26:16;;;;;;;0.53;0.53;;;15.10;99.90;16.20;96777.00;;;;5032927;28;20237;-86
2022/06/06 00:29:07;;;;;;;1.50;0.70;;;15.10;99.90;16.40;96772.00;;;;5035403;28;20205;-84
2022/06/06 00:35:05;;;;;;;2.97;0.80;;;15.10;99.90;16.20;96757.00;;;;5028503;28;20213;-84
2022/06/06 00:37:56;;;;;;;2.40;1.87;;;15.10;99.90;16.20;96759.00;;;;5029678;28;20574;-85
2022/06/06 00:40:50;;;;;;;1.63;0.70;;;15.10;99.90;16.40;96767.00;;;;5027293;28;20638;-84
2022/06/06 00:43:41;;;;;;;2.37;0.60;;;15.20;99.90;16.40;96767.00;;;;5052854;22;21164;-68
2022/06/06 00:46:30;;;;;;;4.93;0.73;;;15.20;99.90;16.20;96778.00;;;;5051670;28;20189;-67
2022/06/06 00:49:26;;;;;;;0.70;0.70;;;15.20;99.90;15.80;96787.00;;;;5049779;28;20197;-67
2022/06/06 00:52:25;;;;;;;2.67;0.70;;;15.10;99.90;15.60;96796.00;;;;5032876;28;20212;-68
2022/06/06 00:55:22;;;;;;;2.40;0.70;;;15.00;99.90;15.90;96812.00;;;;5033206;28;20288;-67
2022/06/06 00:58:15;;;;;;;3.40;0.77;;;15.00;99.90;16.20;96835.00;;;;5034076;28;20196;-68
2022/06/06 01:01:05;;;;;;;0.50;0.50;;;15.00;99.90;16.40;96853.00;;;;5033681;28;20235;-67
2022/06/06 01:03:58;;;;;;;0.90;0.60;;;15.10;99.90;16.40;96863.00;;;;5032988;28;20198;-67
2022/06/06 01:06:48;;;;;;;0.93;0.67;;;15.10;99.90;16.50;96871.00;;;;5031185;28;20208;-67
2022/06/06 01:09:41;;;;;;;1.20;1.10;;;15.20;99.90;16.40;96884.00;;;;5039014;28;20220;-68
2022/06/06 01:12:32;;;;;;;1.30;0.87;;;15.20;99.90;16.40;96880.00;;;;5025611;28;20569;-68
2022/06/06 01:15:26;;;;;;;1.60;0.80;;;15.20;99.90;16.30;96878.00;;;;5029041;28;20201;-68
2022/06/06 01:18:26;;;;;;;2.07;0.83;;;15.20;99.90;15.90;96880.00;;;;5026728;28;20209;-68
2022/06/06 01:22:18;;;;;;;0.97;0.50;;;15.10;99.90;16.20;96891.00;;;;5027414;28;20256;-67
2022/06/06 01:25:58;;;;;;;0.67;0.50;;;15.10;99.90;16.10;96900.00;;;;5003886;28;20201;-67
2022/06/06 01:29:01;;;;;;;2.90;0.77;;;15.10;99.90;15.80;96896.00;;;;5030788;28;20192;-68
2022/06/06 01:31:57;;;;;;;1.23;0.60;;;15.00;99.90;16.00;96891.00;;;;5034402;28;20217;-68
2022/06/06 01:34:48;;;;;;;3.07;1.07;;;15.00;99.90;15.90;96897.00;;;;5029268;28;20220;-67
2022/06/06 01:37:40;;;;;;;2.00;0.50;;;15.00;99.90;15.50;96900.00;;;;5029681;28;20223;-68
2022/06/06 01:40:33;;;;;;;0.97;0.63;;;;;15.50;96908.00;;;;5032873;28;20863;-67
2022/06/06 01:43:30;;;;;;;0.80;0.77;;;14.90;99.90;15.70;96919.00;;;;5030192;28;20212;-67
2022/06/06 01:46:27;;;;;;;3.13;0.90;;;14.80;99.90;15.90;96915.00;;;;5034560;28;20192;-67
2022/06/06 01:49:17;;;;;;;2.13;0.63;;;14.80;99.90;16.00;96912.00;;;;5037057;28;20549;-67
2022/06/06 01:52:10;;;;;;;2.13;0.73;;;14.90;99.90;16.10;96915.00;;;;5030698;28;20233;-67
2022/06/06 01:54:59;;;;;;;2.20;0.60;;;14.90;99.90;16.20;96928.00;;;;5040371;28;20703;-68
2022/06/06 01:57:50;;;;;;;4.93;0.70;;;14.90;99.90;16.20;96924.00;;;;5040044;28;20216;-67
2022/06/06 02:00:41;;;;;;;2.13;0.93;;;14.90;99.90;16.20;96925.00;;;;5025936;28;20615;-67
2022/06/06 02:03:32;;;;;;;2.47;0.80;;;14.90;99.90;16.00;96934.00;;;;5023620;28;20197;-68
2022/06/06 02:06:21;;;;;;;0.67;0.67;;;14.90;99.90;15.80;96926.00;;;;5027684;28;20727;-67
2022/06/06 02:09:10;;;;;;;1.83;0.87;;;14.90;99.90;16.10;96942.00;;;;5036544;28;20553;-68
2022/06/06 02:11:59;;;;;;;0.97;0.60;;;14.90;99.90;16.20;96933.00;;;;5030226;28;20233;-68
2022/06/06 02:14:48;;;;;;;2.67;0.63;;;15.00;99.90;16.10;96937.00;;;;5041064;28;20211;-68
2022/06/06 02:17:39;;;;;;;0.90;0.67;;;14.90;99.90;16.00;96934.00;;;;5041591;28;20227;-67
2022/06/06 02:20:32;;;;;;;1.33;0.70;;;14.90;99.90;16.10;96930.00;;;;5028537;28;20225;-66
2022/06/06 02:23:21;;;;;;;1.13;0.60;;;14.90;99.90;16.20;96928.00;;;;5031035;28;20193;-67
2022/06/06 02:26:10;;;;;;;0.83;0.70;;;14.90;99.90;16.00;96926.00;;;;5029824;28;20193;-67
2022/06/06 02:28:59;;;;;;;1.23;0.70;;;15.00;99.90;16.00;96919.00;;;;5025544;28;20568;-67
2022/06/06 02:31:48;;;;;;;2.27;1.03;;;;;15.70;96925.00;;;;5022754;28;20232;-68
2022/06/06 02:34:37;;;;;;;23.53;1.60;;;14.90;99.90;16.00;96927.00;;;;5042597;28;20211;-68
2022/06/06 02:37:27;;;;;;;0.73;0.70;;;14.90;99.90;16.00;96924.00;;;;5040190;28;20204;-68
2022/06/06 02:40:20;;;;;;;1.87;0.80;;;14.80;99.90;16.10;96933.00;;;;5038743;28;20232;-68
2022/06/06 02:43:09;;;;;;;3.57;0.80;;;14.90;99.90;16.10;96926.00;;;;5030690;28;20201;-68
2022/06/06 02:46:01;;;;;;;0.50;0.40;;;14.90;99.90;16.10;96929.00;;;;5028333;28;20209;-67
2022/06/06 02:48:50;;;;;;;1.10;0.80;;;14.90;99.90;16.10;96931.00;;;;5029769;28;20231;-68
2022/06/06 02:51:39;;;;;;;1.77;0.57;;;14.90;99.90;16.20;96933.00;;;;5029170;28;20233;-68
2022/06/06 02:54:29;;;;;;;0.70;0.43;;;14.90;99.90;16.30;96942.00;;;;5029497;28;20211;-67
2022/06/06 02:57:18;;;;;;;1.93;0.70;;;15.00;99.90;16.20;96945.00;;;;5029898;28;20597;-67
2022/06/06 03:00:10;;;;;;;3.80;0.77;;;15.00;99.90;16.20;96944.00;;;;5041083;28;20217;-68
2022/06/06 03:02:59;;;;;;;1.37;0.83;;;15.00;99.90;16.40;96947.00;;;;5035220;28;20205;-68
2022/06/06 03:06:03;;;;;;;5.13;0.70;;;15.00;99.90;16.40;96939.00;;;;5037234;28;20193;-68
2022/06/06 03:09:06;;;;;;;0.63;0.60;;;15.00;99.90;16.30;96944.00;;;;5038943;28;20270;-66
2022/06/06 03:12:20;;;;;;;3.13;0.77;;;15.00;99.90;16.40;96936.00;;;;5040219;28;20232;-68
2022/06/06 03:15:37;;;;;;;1.63;1.00;;;15.10;99.90;16.50;96930.00;;;;5039115;28;20690;-68
2022/06/06 03:21:48;;;;;;;1.47;1.37;;;15.10;99.90;16.40;96937.00;;;;5024982;28;20229;-68
2022/06/06 03:25:02;;;;;;;0.93;0.90;;;15.10;99.90;16.40;96945.00;;;;5033899;28;20691;-68
2022/06/06 03:28:02;;;;;;;0.83;0.70;;;15.10;99.90;16.40;96955.00;;;;5027378;28;20216;-68
2022/06/06 03:31:01;;;;;;;3.70;0.90;;;15.10;99.90;16.40;96970.00;;;;5029982;28;20236;-68
2022/06/06 03:34:01;;;;;;;6.43;0.90;;;15.10;99.90;16.20;96966.00;;;;5029206;28;20198;-67
2022/06/06 03:36:58;;;;;;;6.23;1.07;;;15.10;99.90;15.90;96962.00;;;;5027608;28;20193;-68
2022/06/06 03:40:00;;;;;;;1.80;0.93;;;15.10;99.90;16.10;96979.00;;;;5034443;28;20684;-68
2022/06/06 03:43:02;;;;;;;0.93;0.90;;;15.00;99.90;16.30;96991.00;;;;5026481;28;20693;-67
2022/06/06 03:45:58;;;;;;;2.37;1.00;;;15.10;99.90;16.40;96981.00;;;;5033284;28;20201;-67
2022/06/06 03:49:03;;;;;;;2.30;0.80;;;15.10;99.90;16.10;96986.00;;;;5031210;28;20201;-68
2022/06/06 03:52:05;;;;;;;3.53;1.20;;;15.10;99.90;16.10;96987.00;;;;5031016;28;20575;-67
2022/06/06 03:55:03;;;;;;;4.40;1.00;;;15.00;99.90;15.90;96988.00;;;;5028753;28;20208;-67
2022/06/06 03:57:57;;;;;;;3.30;1.03;;;15.00;99.90;15.80;96989.00;;;;5033443;28;20564;-68
2022/06/06 04:00:47;;;;;;;1.00;0.90;;;15.00;99.90;15.90;96999.00;;;;5026550;28;20232;-67
2022/06/06 04:03:37;;;;;;;1.10;0.87;;;14.90;99.90;16.00;97008.00;;;;5030603;28;20203;-68
2022/06/06 04:06:28;;;;;;;4.10;1.20;;;14.90;99.90;16.10;97001.00;;;;5030007;28;20217;-68
2022/06/06 04:09:17;;;;;;;0.90;0.80;;;15.00;99.90;16.10;97007.00;;;;5030915;28;20220;-68
2022/06/06 04:12:26;;;;;;;1.20;0.93;;;15.00;99.90;16.30;97005.00;;;;5031155;28;20240;-67
2022/06/06 04:15:28;;;;;;;1.90;0.80;;;15.00;99.90;16.40;96998.00;;;;5029948;28;20681;-68
2022/06/06 04:18:35;;;;;;;3.97;0.93;;;15.10;99.90;16.30;97003.00;;;;5029867;28;20208;-68
2022/06/06 04:21:35;;;;;;;0.77;0.70;;;15.10;99.90;16.50;96985.00;;;;5017775;28;20228;-67
2022/06/06 04:24:47;;;;;;;1.77;0.60;;;15.10;99.90;16.70;97000.00;;;;5033398;28;20205;-67
2022/06/06 04:27:46;;;;;;;0.70;0.70;;;15.30;99.90;16.70;97005.00;;;;5026350;28;20200;-67
2022/06/06 04:30:43;;;;;;;3.40;1.10;;;15.30;99.90;16.20;97002.00;;;;5028895;28;20220;-68
2022/06/06 04:33:42;;;;;;;2.60;0.90;;;15.30;99.90;16.30;97018.00;;;;5033013;28;20219;-67
2022/06/06 04:36:36;;;;;;;2.17;0.60;;;15.30;99.90;16.20;97002.00;;;;5030102;28;20559;-67
2022/06/06 04:39:35;;;;;;;0.70;0.70;;;15.20;99.90;16.20;97008.00;;;;5026301;28;20206;-68
2022/06/06 04:42:34;;;;;;;0.80;0.70;;;15.20;99.90;16.60;97009.00;;;;5030348;28;20244;-67
2022/06/06 04:45:32;;;;;;;3.07;0.90;;;15.30;99.90;16.70;97009.00;;;;5028485;28;20213;-67
2022/06/06 04:48:23;;;;;;;2.13;0.93;;;15.40;99.90;16.80;97012.00;;;;5029394;28;20205;-68
2022/06/06 04:51:20;;;;;;;3.00;1.20;;;15.40;99.90;16.90;97009.00;;;;5039724;23;20232;-86
2022/06/06 04:54:15;;;;;;;0.90;0.80;;;15.50;99.90;17.00;97014.00;;;;5048827;28;20676;-85
2022/06/06 04:57:06;;;;;;;1.40;1.03;;;15.50;99.90;17.00;97025.00;;;;5039925;28;20212;-86
2022/06/06 04:59:58;;;;;;;0.60;0.60;;;15.60;99.90;16.80;97020.00;;;;5052191;28;20201;-85
2022/06/06 05:02:47;;;;;;;0.70;0.60;;;15.60;99.90;16.80;97026.00;;;;5048490;28;20597;-85
2022/06/06 05:05:53;;;;;;;2.70;1.00;;;15.60;99.90;16.80;97026.00;;;;5052624;28;20203;-85
2022/06/06 05:09:17;;;;;;;1.83;0.87;;;15.60;99.90;16.60;97022.00;;;;5051523;28;20200;-86
2022/06/06 05:12:22;;;;;;;6.17;0.90;;;15.60;99.90;16.70;97019.00;;;;5051728;28;20212;-85
2022/06/06 05:15:30;;;;;;;2.33;0.70;;;15.60;99.90;16.80;97026.00;;;;5049953;28;20196;-85
2022/06/06 05:18:37;;;;;;;1.07;0.97;;;15.60;99.90;16.90;97033.00;;;;5045111;28;20216;-86
2022/06/06 05:21:46;;;;;;;1.17;1.07;;;15.60;99.90;16.80;97034.00;;;;5057786;28;20227;-85
2022/06/06 05:25:02;;;;;;;3.67;1.00;;;15.60;99.90;16.80;97032.00;;;;5048669;28;20188;-85
2022/06/06 05:28:12;;;;;;;0.87;0.87;;;15.70;99.90;16.90;97024.00;;;;5044523;28;20196;-85
2022/06/06 05:31:15;;;;;;;4.33;1.07;;;15.70;99.90;16.80;97028.00;;;;5049799;28;20578;-85
2022/06/06 05:34:09;;;;;;;0.70;0.70;;;15.70;99.90;16.80;97032.00;;;;5047757;28;20208;-84
2022/06/06 05:37:23;;;;;;;1.00;0.97;;;15.70;99.90;16.90;97035.00;;;;5044880;28;20207;-84
2022/06/06 05:40:22;;;;;;;4.10;1.10;;;15.80;99.90;17.10;97033.00;;;;5046211;28;20208;-85
2022/06/06 05:43:31;;;;;;;1.60;1.50;;;15.80;99.90;17.30;97022.00;;;;5039578;28;20225;-84
2022/06/06 05:46:37;;;;;;;1.40;1.20;;;15.90;99.90;17.50;97017.00;;;;5048650;28;20205;-85
2022/06/06 05:49:43;;;;;;;3.33;1.60;;;16.00;99.90;17.60;97023.00;;;;5055152;28;20878;-85
2022/06/06 05:52:53;;;;;;;1.20;1.10;;;16.20;99.90;17.80;97025.00;;;;5067806;28;20231;-86
2022/06/06 05:56:03;;;;;;;1.20;0.90;;;16.30;99.90;17.80;97026.00;;;;5039500;28;20213;-85
2022/06/06 05:59:10;;;;;;;1.03;0.93;;;16.40;99.90;18.30;97028.00;;;;5051833;28;20203;-86
2022/06/06 06:02:21;;;;;;;1.63;0.90;;;16.60;99.90;18.60;97026.00;;;;5043010;28;20224;-86
2022/06/06 06:05:17;;;;;;;1.10;1.00;;;16.80;99.90;18.50;97018.00;;;;5048723;28;20207;-85
2022/06/06 06:08:24;;;;;;;1.20;1.10;;;16.90;99.90;19.20;97014.00;;;;5047473;28;20201;-85
2022/06/06 06:11:28;;;;;;;2.63;1.00;;;17.10;99.90;19.50;97015.00;;;;5058026;28;20234;-85
2022/06/06 06:14:31;;;;;;;3.20;1.33;;;17.40;99.90;19.90;97015.00;;;;5050963;28;20212;-85
2022/06/06 06:17:25;;;;;;;5.90;1.87;;;;;20.10;97017.00;;;;5050243;28;20218;-86
2022/06/06 06:20:19;;;;;;;1.63;0.80;;;18.00;99.90;19.80;97015.00;;;;5056758;28;20204;-86
2022/06/06 06:23:14;;;;;;;1.47;1.37;;;18.20;99.90;20.20;97017.00;;;;5047654;28;20224;-86
2022/06/06 06:26:06;;;;;;;1.50;1.30;;;18.40;99.90;20.40;97018.00;;;;5051303;28;20192;-86
2022/06/06 06:29:00;;;;;;;1.50;1.37;;;18.60;99.90;20.60;97025.00;;;;5054459;28;20582;-85
2022/06/06 06:32:12;;;;;;;2.23;1.27;;;18.70;99.90;20.90;97025.00;;;;5061931;28;20212;-86
2022/06/06 06:35:15;;;;;;;4.30;1.60;;;18.90;99.90;21.10;97031.00;;;;5048899;28;20207;-85
2022/06/06 06:38:21;;;;;;;3.90;1.70;;;19.10;99.90;20.90;97034.00;;;;5056681;28;20697;-86
2022/06/06 06:41:23;;;;;;;6.27;1.80;;;19.20;99.90;21.10;97037.00;;;;5068789;28;20224;-85
2022/06/06 06:44:18;;;;;;;1.93;1.40;;;19.30;99.90;20.80;97036.00;;;;5046312;28;20247;-86
2022/06/06 06:47:12;;;;;;;1.50;1.40;;;19.30;99.90;20.90;97041.00;;;;5058042;28;20200;-85
2022/06/06 06:50:12;;;;;;;1.27;1.10;;;19.30;99.90;20.80;97037.00;;;;5064553;28;20206;-86
2022/06/06 06:53:21;;;;;;;5.00;1.60;;;19.30;99.90;21.10;97030.00;;;;5056963;28;20211;-86
2022/06/06 06:56:29;;;;;;;2.17;1.70;;;19.30;99.90;21.40;97040.00;;;;5056001;28;20200;-85
2022/06/06 06:59:30;;;;;;;2.53;1.30;;;19.40;99.90;21.60;97041.00;;;;5059779;28;20200;-85
2022/06/06 07:09:05;;;;;;;3.83;1.17;;;19.60;99.90;21.50;97033.00;;;;5046220;28;20205;-84
2022/06/06 07:12:17;;;;;;;2.00;0.80;;;19.70;99.90;21.80;97035.00;;;;5046520;28;20219;-85
2022/06/06 07:15:27;;;;;;;1.97;0.90;;;19.80;99.90;22.00;97035.00;;;;5044333;28;20199;-86
2022/06/06 07:18:21;;;;;;;3.13;1.10;;;20.00;99.90;22.20;97035.00;;;;5042056;28;20680;-86
2022/06/06 07:21:13;;;;;;;1.00;0.90;;;20.20;99.90;21.80;97043.00;;;;5061009;28;20229;-86
2022/06/06 07:24:06;;;;;;;1.07;0.90;;;20.30;99.90;22.20;97036.00;;;;5054895;28;20228;-86
2022/06/06 07:26:58;;;;;;;3.43;1.00;;;20.40;99.90;22.40;97037.00;;;;5054515;28;20563;-86
2022/06/06 07:29:47;;;;;;;1.40;0.73;;;20.50;99.90;22.20;97030.00;;;;5056890;28;20204;-87
2022/06/06 07:32:48;;;;;;;1.60;0.90;;;20.60;99.90;22.40;97021.00;;;;5056998;28;20235;-87
2022/06/06 07:35:48;;;;;;;2.00;1.00;;;20.60;99.90;22.70;97017.00;;;;5055136;28;20212;-86
2022/06/06 07:38:55;;;;;;;2.33;1.00;;;20.70;99.90;22.60;97015.00;;;;5055592;28;20203;-86
2022/06/06 07:42:04;;;;;;;2.93;1.00;;;20.80;99.90;22.80;97015.00;;;;5055923;28;20603;-86
2022/06/06 07:45:09;;;;;;;3.43;0.97;;;20.90;99.90;22.90;97019.00;;;;5046495;28;20208;-86
2022/06/06 07:48:16;;;;;;;1.70;1.20;;;21.00;99.90;22.90;97024.00;;;;5042511;28;20559;-86
2022/06/06 07:51:12;;;;;;;1.60;0.90;;;21.10;99.90;23.00;97005.00;;;;5062731;28;20227;-86
2022/06/06 07:54:16;;;;;;;1.27;0.90;;;21.10;99.90;23.10;97012.00;;;;5043225;28;20694;-86
2022/06/06 07:57:17;;;;;;;2.63;1.37;;;21.20;99.90;23.10;97014.00;;;;5054151;28;20205;-86
2022/06/06 08:00:12;;;;;;;3.77;1.30;;;21.30;99.90;23.50;97011.00;;;;5058299;28;20829;-85
2022/06/06 08:03:18;;;;;;;2.47;1.13;;;21.40;99.90;23.60;97014.00;;;;5055540;28;20238;-86
2022/06/06 08:06:35;;;;;;;1.40;1.30;;;21.60;99.90;22.90;97019.00;;;;5050991;28;20197;-86
2022/06/06 08:10:03;;;;;;;2.00;1.17;;;21.70;99.90;23.70;97013.00;;;;5061950;28;20203;-86
2022/06/06 08:13:28;;;;;;;2.07;1.13;;;21.80;99.90;24.10;97015.00;;;;5053240;28;20667;-86
2022/06/06 08:16:28;;;;;;;3.37;0.80;;;22.00;99.90;23.40;97007.00;;;;5052573;28;20724;-87
2022/06/06 08:19:45;;;;;;;2.57;1.17;;;22.10;99.90;23.70;97000.00;;;;5047514;28;20302;-86
2022/06/06 08:22:36;;;;;;;1.63;1.10;;;22.10;99.90;23.70;97012.00;;;;5055690;28;20224;-86
2022/06/06 08:25:25;;;;;;;2.23;1.10;;;22.20;99.90;23.90;96999.00;;;;5048461;28;20207;-86
2022/06/06 08:28:17;;;;;;;2.97;1.30;;;22.20;99.90;24.40;96997.00;;;;5044456;28;20219;-86
2022/06/06 08:31:07;;;;;;;3.50;1.20;;;22.30;99.90;24.40;96999.00;;;;5050091;28;20228;-86
2022/06/06 08:33:55;;;;;;;2.63;1.20;;;22.40;99.90;24.40;96992.00;;;;5054979;28;20201;-87
2022/06/06 08:37:21;;;;;;;1.10;1.00;;;22.50;99.90;24.90;96990.00;;;;5050546;28;20213;-87
2022/06/06 08:40:52;;;;;;;1.77;1.10;;;22.80;99.90;25.20;96989.00;;;;5057294;28;20196;-87
2022/06/06 08:44:02;;;;;;;2.67;1.37;;;23.00;99.90;24.80;96982.00;;;;5045496;28;20224;-87
2022/06/06 08:47:09;;;;;;;2.40;1.30;;;23.20;99.90;24.10;96999.00;;;;5041908;28;20196;-87
2022/06/06 08:54:44;;;;;;;1.53;1.03;;;23.10;99.90;24.60;96978.00;;;;5038662;28;20227;-87
2022/06/06 08:57:59;;;;;;;1.90;1.20;;;23.30;99.90;25.00;96981.00;;;;5048838;28;20679;-86
2022/06/06 09:01:00;;;;;;;2.00;1.10;;;23.20;99.90;24.40;96984.00;;;;5048972;28;20719;-86
2022/06/06 09:04:48;;;;;;;1.90;1.27;;;23.40;99.90;25.70;96977.00;;;;5048095;28;20227;-87
2022/06/06 09:08:36;;;;;;;2.40;1.20;;;23.60;99.90;26.40;96967.00;;;;5052957;28;20210;-86
2022/06/06 09:13:00;;;;;;;2.73;1.10;;;23.90;99.90;24.90;96962.00;;;;4987412;28;20240;-86
2022/06/06 09:17:05;;;;;;;3.83;1.20;;;24.10;99.90;26.80;96987.00;;;;4993071;28;20190;-86
2022/06/06 09:20:40;;;;;;;1.47;0.93;;;24.40;99.90;27.40;96966.00;;;;4984615;28;20200;-86
2022/06/06 09:24:14;;;;;;;2.23;1.70;;;24.90;99.90;27.90;96958.00;;;;5038090;28;20243;-86
2022/06/06 09:28:01;;;;;;;1.40;1.30;;;25.20;99.90;27.00;96985.00;;;;5044476;28;20702;-86
2022/06/06 09:31:45;;;;;;;3.30;2.63;;;25.20;99.90;27.00;96952.00;;;;4969205;28;20905;-86
2022/06/06 09:35:07;;;;;;;3.47;1.30;;;25.30;99.90;27.50;96955.00;;;;4972012;28;20917;-86
2022/06/06 09:38:13;;;;;;;1.17;1.07;;;25.50;99.90;26.40;96948.00;;;;5039189;28;20213;-85
2022/06/06 09:41:28;;;;;;;1.60;1.20;;;25.30;99.90;26.90;96947.00;;;;5045492;28;20217;-86
2022/06/06 09:44:49;;;;;;;3.13;1.27;;;25.40;99.90;26.10;96987.00;;;;5038716;28;20240;-86
2022/06/06 09:49:00;;;;;;;2.40;1.47;;;25.00;99.90;26.60;96947.00;;;;5041681;28;20226;-87
2022/06/06 09:52:45;;;;;;;1.63;1.23;;;24.70;99.90;27.30;96953.00;;;;5041755;28;20859;-87
2022/06/06 10:00:21;;;;;;;2.80;1.93;;;25.30;99.90;28.50;96954.00;;;;4931343;28;20202;-87
2022/06/06 10:04:07;;;;;;;1.93;1.30;;;25.60;99.90;29.20;96949.00;;;;4986807;28;20205;-88
2022/06/06 10:08:06;;;;;;;2.53;0.93;;;26.20;99.90;28.50;96947.00;;;;5043252;28;20206;-87
2022/06/06 10:11:29;;;;;;;2.60;1.43;;;26.70;99.90;26.50;96931.00;;;;5037277;28;20218;-88
2022/06/06 10:15:03;;;;;;;1.27;1.17;;;26.30;96.80;26.80;96934.00;;;;5043287;28;20203;-87
2022/06/06 10:18:37;;;;;;;3.00;1.47;;;26.20;95.50;28.40;96939.00;;;;5038329;28;20682;-88
2022/06/06 10:22:11;;;;;;;3.67;1.63;;;26.30;96.30;28.30;96976.00;;;;5033275;28;20232;-88
2022/06/06 10:25:35;;;;;;;2.87;1.27;;;26.30;96.30;27.10;96928.00;;;;5030897;28;20226;-87
2022/06/06 10:29:18;;;;;;;1.13;0.87;;;27.80;94.90;28.10;96928.00;;;;5030450;28;20202;-87
2022/06/06 10:33:08;;;;;;;1.83;1.37;;;26.20;94.00;29.60;96927.00;;;;5043180;28;20308;-86
2022/06/06 10:36:44;;;;;;;1.13;1.03;;;26.70;96.40;29.30;96923.00;;;;5037598;28;20207;-87
2022/06/06 10:39:59;;;;;;;1.10;1.00;;;27.10;91.40;29.10;96968.00;;;;5040304;28;20283;-87
2022/06/06 10:43:49;;;;;;;2.23;1.40;;;27.10;91.40;29.80;96918.00;;;;5041578;28;20674;-87
2022/06/06 10:46:53;;;;;;;1.10;1.00;;;27.30;92.00;29.00;96964.00;;;;5028276;28;20219;-86
2022/06/06 10:49:52;;;;;;;1.40;1.30;;;27.20;88.20;28.60;96966.00;;;;5042509;28;20199;-88
2022/06/06 10:53:28;;;;;;;4.27;1.23;;;27.00;87.80;28.60;96916.00;;;;5043954;28;20200;-88
2022/06/06 10:56:57;;;;;;;2.30;1.10;;;26.80;89.20;29.70;96961.00;;;;5041027;28;20207;-86
2022/06/06 11:00:29;;;;;;;1.10;1.10;;;27.20;90.30;28.60;96967.00;;;;5044004;28;20218;-87
2022/06/06 11:04:20;;;;;;;1.20;1.10;;;27.00;86.10;28.50;96920.00;;;;5036174;28;20208;-89
2022/06/06 11:08:04;;;;;;;1.70;1.17;;;26.90;89.10;31.30;96909.00;;;;5030969;28;20214;-88
2022/06/06 11:11:29;;;;;;;1.23;1.13;;;25.40;89.60;30.90;96960.00;;;;5042654;28;20308;-89
2022/06/06 11:14:29;;;;;;;2.97;1.17;;;28.00;82.90;29.60;96955.00;;;;5042020;28;20206;-89
2022/06/06 11:18:12;;;;;;;1.57;1.23;;;27.90;82.40;29.70;96957.00;;;;5043731;28;20200;-88
2022/06/06 11:21:55;;;;;;;1.83;1.20;;;27.80;79.00;28.90;96961.00;;;;5036287;28;20233;-88
2022/06/06 11:24:57;;;;;;;2.37;1.20;;;27.40;81.30;29.70;96896.00;;;;5049317;28;20229;-88
2022/06/06 11:28:21;;;;;;;4.27;1.13;;;27.40;83.30;31.30;96894.00;;;;5042904;28;20213;-89
2022/06/06 11:31:39;;;;;;;1.90;1.60;;;28.30;81.80;31.70;96892.00;;;;5042241;28;20590;-89
2022/06/06 11:35:05;;;;;;;2.23;1.33;;;28.50;81.90;32.40;96887.00;;;;5041366;28;20696;-88
2022/06/06 11:38:53;;;;;;;1.55;1.40;;;29.10;79.50;31.90;96887.00;;;;5037635;28;20211;-89
2022/06/06 11:42:22;;;;;;;2.10;1.30;;;29.50;74.90;32.40;96879.00;;;;4997553;28;20695;-89
2022/06/06 11:45:50;;;;;;;3.17;1.20;;;29.90;73.10;33.30;96869.00;;;;5040625;28;20219;-89
2022/06/06 11:49:22;;;;;;;1.95;1.60;;;30.10;74.30;32.40;96864.00;;;;5043227;28;20205;-89
2022/06/06 11:53:23;;;;;;;1.83;1.13;;;30.10;69.60;32.60;96932.00;;;;5046220;28;20242;-86
2022/06/06 11:56:35;;;;;;;1.20;1.10;;;30.30;70.60;30.70;96937.00;;;;5041830;28;20210;-88
2022/06/06 12:00:04;;;;;;;1.52;1.15;;;29.70;66.50;30.20;96937.00;;;;5049224;28;20630;-88
2022/06/06 12:03:51;;;;;;;1.33;1.08;;;29.10;68.80;30.70;96859.00;;;;5044713;28;20217;-88
2022/06/06 12:07:58;;;;;;;1.35;0.85;;;28.90;69.50;33.40;96866.00;;;;5053666;28;20559;-88
2022/06/06 12:11:27;;;;;;;1.35;1.00;;;29.60;71.30;32.90;96863.00;;;;4969483;28;20239;-87
2022/06/06 12:14:44;;;;;;;1.83;0.73;;;30.20;66.00;33.90;96909.00;;;;4987104;28;20206;-88
2022/06/06 12:17:51;;;;;;;0.98;0.98;;;30.60;65.10;32.60;96851.00;;;;5052429;28;20204;-87
2022/06/06 12:21:06;;;;;;;1.20;1.10;;;30.90;59.50;31.60;96848.00;;;;5043949;28;20395;-88
2022/06/06 12:24:42;;;;;;;1.35;1.00;;;31.00;59.80;32.10;96842.00;;;;5048494;28;20215;-86
2022/06/06 12:27:55;;;;;;;1.55;0.98;;;30.60;57.50;32.90;96836.00;;;;5040431;28;20204;-88
2022/06/06 12:31:13;;;;;;;1.20;0.80;;;30.80;59.60;31.40;96890.00;;;;5050712;28;20303;-88
2022/06/06 12:34:13;;;;;;;2.00;1.00;;;30.50;57.50;31.70;96908.00;;;;5040012;28;20207;-87
2022/06/06 12:37:13;;;;;;;1.40;0.88;;;30.10;58.80;32.40;96906.00;;;;5044370;28;20218;-88
2022/06/06 12:40:13;;;;;;;1.13;1.02;;;30.20;56.50;31.50;96907.00;;;;5040662;28;20215;-87
2022/06/06 12:43:11;;;;;;;3.35;1.15;;;30.00;57.50;31.40;96897.00;;;;5043406;28;20219;-86
2022/06/06 12:46:22;;;;;;;2.10;1.33;;;29.80;58.80;32.80;96890.00;;;;5037069;28;20222;-87
2022/06/06 12:49:37;;;;;;;1.40;0.80;;;30.00;60.20;32.20;96823.00;;;;5039416;28;20241;-89
2022/06/06 12:53:04;;;;;;;1.13;1.02;;;30.10;57.70;33.60;96816.00;;;;5039237;28;20717;-88
2022/06/06 12:56:17;;;;;;;0.82;0.82;;;30.60;58.40;34.30;96822.00;;;;5040685;28;20277;-89
2022/06/06 12:59:39;;;;;;;1.13;0.82;;;31.20;58.00;34.90;96815.00;;;;5039547;28;20208;-89
2022/06/06 13:02:55;;;;;;;2.45;0.93;;;31.70;57.80;35.60;96823.00;;;;5035423;28;20887;-87
2022/06/06 13:05:53;;;;;;;1.27;1.17;;;32.30;60.90;35.80;96819.00;;;;5037997;28;20491;-86
2022/06/06 13:09:02;;;;;;;1.50;0.95;;;32.70;60.10;35.70;96816.00;;;;5038950;28;20213;-88
2022/06/06 13:12:03;;;;;;;1.90;1.25;;;33.10;59.00;35.80;96883.00;;;;5038967;28;20224;-86
2022/06/06 13:15:12;;;;;;;1.30;0.87;;;33.20;57.90;31.40;96890.00;;;;5030813;28;20880;-88
2022/06/06 13:18:36;;;;;;;1.35;0.90;;;32.50;52.60;30.40;96866.00;;;;5034856;28;20188;-87
2022/06/06 13:21:42;;;;;;;2.17;1.10;;;31.30;52.40;30.40;96873.00;;;;5058377;28;20223;-88
2022/06/06 13:25:06;;;;;;;2.35;1.08;;;30.40;55.70;30.50;96875.00;;;;5053735;28;20200;-87
2022/06/06 13:28:01;;;;;;;1.83;0.93;;;29.80;57.70;30.80;96867.00;;;;5061941;28;20208;-88
2022/06/06 13:31:33;;;;;;;2.15;1.08;;;29.30;58.10;30.70;96870.00;;;;5079003;28;20209;-87
2022/06/06 13:34:36;;;;;;;1.20;1.15;;;29.10;59.60;28.60;96858.00;;;;5053879;28;20230;-88
2022/06/06 13:37:41;;;;;;;1.42;1.33;;;28.60;61.30;29.50;96792.00;;;;5049758;28;20211;-88
2022/06/06 13:40:38;;;;;;;2.72;1.98;;;28.10;62.00;29.10;96788.00;;;;5052704;28;20203;-88
2022/06/06 13:43:36;;;;;;;;;;;28.20;62.80;29.30;96783.00;;;;5037417;28;20126;-87
2022/06/06 13:46:46;;;;;;;1.98;1.30;;;28.70;69.00;27.00;96846.00;;;;5044157;28;20505;-88
2022/06/06 13:49:54;;;;;;;5.07;2.00;;;27.50;69.60;28.00;96808.00;;;;5053381;28;20217;-88
2022/06/06 13:53:12;;;;;;;2.23;1.10;;;27.00;70.70;29.40;96844.00;;;;5048342;28;20196;-87
2022/06/06 13:56:31;;;;;;;1.90;1.07;;;27.50;71.30;28.20;96782.00;;;;5045283;28;20698;-87
2022/06/06 13:59:44;;;;;;;1.60;1.30;;;27.30;72.20;27.40;96852.00;;;;5039434;28;20208;-86
2022/06/06 14:02:59;;;;;;;2.00;1.37;;;27.00;71.40;27.10;96851.00;;;;5038560;28;20225;-87
2022/06/06 14:06:15;;;;;;;6.97;1.70;;;26.60;72.20;27.40;96854.00;;;;5045871;28;20199;-87
2022/06/06 14:09:04;;;;;;;1.50;1.30;;;26.40;75.40;27.30;96846.00;;;;5037240;28;20207;-88
2022/06/06 14:12:31;;;;;;;1.60;1.50;;;26.30;77.40;26.90;96847.00;;;;5035286;28;20290;-88
2022/06/06 14:15:24;;;;;;;1.53;1.17;;;26.20;76.10;26.70;96844.00;;;;5032690;28;20573;-86